Terminal Aerodrome Forecast
Issued by NWS

Home | Current Version | Previous Version | Text Only | Print | Product List | Glossary Off
Versions: 1 2 3 4 5 6 7 8 9 10 11 12 13

000
FTUS43 KOAX 200500 RRA
TAFCDR
TAF
KCDR 200542Z 2006/2106 05004KT P6SM SKC
     FM201900 35010G19KT P6SM FEW200
     FM210100 02008KT P6SM FEW200=

USA.gov is the U.S. government's official web portal to all federal, state and local government web resources and services.